createdAt,value
2022-09-02T00:02:31.352Z,102120.56
2022-09-02T00:05:35.227Z,102125.88
2022-09-02T00:08:39.835Z,102122.50
2022-09-02T00:11:47.411Z,102123.41
2022-09-02T00:14:51.172Z,102120.78
2022-09-02T00:17:55.213Z,102115.59
2022-09-02T00:21:03.071Z,102116.47
2022-09-02T00:24:08.211Z,102125.31
2022-09-02T00:27:13.382Z,102110.41
2022-09-02T00:30:18.031Z,102113.94
2022-09-02T00:33:21.796Z,102120.09
2022-09-02T00:36:25.646Z,102120.09
2022-09-02T00:39:29.280Z,102115.75
2022-09-02T00:42:36.783Z,102126.31
2022-09-02T00:45:40.489Z,102125.50
2022-09-02T00:48:49.587Z,102124.69
2022-09-02T00:51:58.770Z,102116.84
2022-09-02T00:55:08.433Z,102118.66
2022-09-02T00:58:27.224Z,102116.06
2022-09-02T01:01:31.056Z,102110.88
2022-09-02T01:04:35.410Z,102110.06
2022-09-02T01:07:40.507Z,102110.97
2022-09-02T01:10:45.045Z,102107.47
2022-09-02T01:13:50.219Z,102104.94
2022-09-02T01:16:57.694Z,102098.84
2022-09-02T01:20:12.203Z,102093.66
2022-09-02T01:23:18.279Z,102084.94
2022-09-02T01:26:22.362Z,102095.50
2022-09-02T01:29:28.032Z,102092.06
2022-09-02T01:32:32.292Z,102095.66
2022-09-02T01:35:36.356Z,102094.81
2022-09-02T01:38:41.350Z,102092.22
2022-09-02T01:41:45.711Z,102088.75
2022-09-02T01:44:49.426Z,102087.09
2022-09-02T01:47:53.432Z,102081.88
2022-09-02T01:51:01.553Z,102082.03
2022-09-02T01:54:07.191Z,102083.84
2022-09-02T01:57:11.227Z,102080.50
2022-09-02T02:00:17.619Z,102071.03
2022-09-02T02:03:21.919Z,102072.88
2022-09-02T02:06:25.684Z,102072.91
2022-09-02T02:09:30.770Z,102070.31
2022-09-02T02:12:34.400Z,102074.69
2022-09-02T02:15:40.487Z,102070.31
2022-09-02T02:18:44.371Z,102064.16
2022-09-02T02:21:48.002Z,102075.56
2022-09-02T02:24:53.025Z,102077.28
2022-09-02T02:27:56.636Z,102065.09
2022-09-02T02:31:01.106Z,102065.16
2022-09-02T02:34:04.885Z,102059.81
2022-09-02T02:37:08.497Z,102064.19
2022-09-02T02:40:14.582Z,102064.28
2022-09-02T02:43:18.335Z,102060.78
2022-09-02T02:46:22.008Z,102047.78
2022-09-02T02:49:26.991Z,102052.25
2022-09-02T02:52:30.711Z,102041.91
2022-09-02T02:55:36.719Z,102051.56
2022-09-02T02:58:40.359Z,102042.84
2022-09-02T03:01:44.092Z,102038.53
2022-09-02T03:04:48.327Z,102044.75
2022-09-02T03:07:52.175Z,102043.88
2022-09-02T03:10:59.204Z,102043.13
2022-09-02T03:14:02.925Z,102045.84
2022-09-02T03:17:06.883Z,102039.75
2022-09-02T03:20:12.179Z,102036.28
2022-09-02T03:23:16.950Z,102040.75
2022-09-02T03:26:25.583Z,102035.59
2022-09-02T03:29:29.442Z,102038.28
2022-09-02T03:32:33.120Z,102035.66
2022-09-02T03:35:42.223Z,102034.81
2022-09-02T03:38:45.892Z,102033.13
2022-09-02T03:41:50.970Z,102027.88
2022-09-02T03:44:54.617Z,102031.50
2022-09-02T03:47:59.293Z,102028.97
2022-09-02T03:51:04.355Z,102029.94
2022-09-02T03:54:08.263Z,102025.59
2022-09-02T03:57:13.435Z,102026.53
2022-09-02T04:00:20.095Z,102027.47
2022-09-02T04:03:24.163Z,102030.16
2022-09-02T04:06:32.416Z,102027.66
2022-09-02T04:09:36.658Z,102026.75
2022-09-02T04:12:42.118Z,102030.34
2022-09-02T04:15:49.182Z,102033.00
2022-09-02T04:18:52.919Z,102025.16
2022-09-02T04:21:56.524Z,102030.44
2022-09-02T04:25:00.587Z,102029.59
2022-09-02T04:28:05.756Z,102035.81
2022-09-02T04:31:13.038Z,102028.75
2022-09-02T04:34:17.017Z,102031.44
2022-09-02T04:37:21.123Z,102028.78
2022-09-02T04:40:26.158Z,102034.94
2022-09-02T04:43:31.255Z,102027.97
2022-09-02T04:46:35.281Z,102028.88
2022-09-02T04:49:38.930Z,102029.78
2022-09-02T04:52:43.614Z,102024.53
2022-09-02T04:55:47.972Z,102028.94
2022-09-02T04:58:54.525Z,102035.94
2022-09-02T05:01:58.358Z,102030.75
2022-09-02T05:05:02.120Z,102030.75
2022-09-02T05:08:05.824Z,102034.22
2022-09-02T05:11:11.968Z,102035.94
2022-09-02T05:14:17.407Z,102026.31
2022-09-02T05:17:21.088Z,102028.03
2022-09-02T05:20:26.131Z,102025.38
2022-09-02T05:23:29.732Z,102029.66
2022-09-02T05:26:36.105Z,102027.00
2022-09-02T05:29:43.996Z,102027.88
2022-09-02T05:32:49.994Z,102026.06
2022-09-02T05:35:54.804Z,102029.50
2022-09-02T05:38:58.362Z,102023.25
2022-09-02T05:42:02.090Z,102023.09
2022-09-02T05:45:09.087Z,102026.38
2022-09-02T05:48:26.617Z,102029.75
2022-09-02T05:51:31.273Z,102022.50
2022-09-02T05:54:38.238Z,102023.94
2022-09-02T05:57:43.358Z,102026.16
2022-09-02T06:00:48.394Z,102019.75
2022-09-02T06:03:53.002Z,102023.41
2022-09-02T06:06:56.838Z,102020.34
2022-09-02T06:10:00.591Z,102013.81
2022-09-02T06:13:04.656Z,102013.38
2022-09-02T06:16:14.052Z,102004.94
2022-09-02T06:19:20.263Z,102007.13
2022-09-02T06:22:25.378Z,102009.56
2022-09-02T06:25:28.985Z,102004.53
2022-09-02T06:28:33.614Z,102017.28
2022-09-02T06:31:41.597Z,102011.41
2022-09-02T06:34:45.311Z,102012.88
2022-09-02T06:37:49.084Z,102015.75
2022-09-02T06:40:55.414Z,102018.31
2022-09-02T06:44:01.806Z,102015.47
2022-09-02T06:47:07.226Z,102018.53
2022-09-02T06:50:11.537Z,102013.72
2022-09-02T06:53:17.952Z,102015.94
2022-09-02T06:56:22.143Z,102011.81
2022-09-02T06:59:26.975Z,102012.78
2022-09-02T07:02:31.916Z,102009.16
2022-09-02T07:05:34.554Z,102008.59
2022-09-02T07:08:39.208Z,102007.78
2022-09-02T07:11:43.310Z,101998.38
2022-09-02T07:14:47.352Z,102000.13
2022-09-02T07:17:52.453Z,101997.06
2022-09-02T07:20:57.959Z,101993.19
2022-09-02T07:24:03.114Z,101994.47
2022-09-02T07:27:08.014Z,101990.59
2022-09-02T07:30:13.114Z,101985.47
2022-09-02T07:33:18.524Z,101990.25
2022-09-02T07:36:22.929Z,101984.44
2022-09-02T07:39:26.649Z,101995.06
2022-09-02T07:42:30.521Z,101983.19
2022-09-02T07:45:36.014Z,101985.78
2022-09-02T07:48:42.389Z,101993.63
2022-09-02T07:51:50.160Z,101988.41
2022-09-02T07:54:53.881Z,101982.84
2022-09-02T07:57:57.607Z,101984.22
2022-09-02T08:01:01.297Z,101983.91
2022-09-02T08:04:07.101Z,101983.06
2022-09-02T08:07:11.273Z,101984.56
2022-09-02T08:10:17.241Z,101988.06
2022-09-02T08:13:21.973Z,101978.34
2022-09-02T08:16:30.913Z,101979.19
2022-09-02T08:19:36.002Z,101982.78
2022-09-02T08:22:40.606Z,101977.88
2022-09-02T08:25:45.531Z,101981.38
2022-09-02T08:28:49.200Z,101978.44
2022-09-02T08:31:54.168Z,101981.06
2022-09-02T08:35:02.778Z,101977.66
2022-09-02T08:38:06.488Z,101978.00
2022-09-02T08:41:23.324Z,101974.56
2022-09-02T08:44:28.633Z,101971.22
2022-09-02T08:47:34.509Z,101968.28
2022-09-02T08:50:46.168Z,101962.03
2022-09-02T08:53:59.055Z,101965.88
2022-09-02T08:57:02.713Z,101956.72
2022-09-02T09:00:07.912Z,101952.88
2022-09-02T09:03:27.510Z,101950.69
2022-09-02T09:06:47.189Z,101948.44
2022-09-02T09:10:10.368Z,101946.84
2022-09-02T09:14:01.135Z,101945.47
2022-09-02T09:17:16.313Z,101939.56
2022-09-02T09:20:22.913Z,101939.22
2022-09-02T09:23:34.667Z,101934.16
2022-09-02T09:26:42.650Z,101930.41
2022-09-02T09:29:46.833Z,101925.59
2022-09-02T09:32:56.927Z,101918.91
2022-09-02T09:36:00.890Z,101914.75
2022-09-02T09:39:21.028Z,101910.84
2022-09-02T09:42:35.424Z,101907.13
2022-09-02T09:45:41.803Z,101908.00
2022-09-02T09:48:51.627Z,101904.09
2022-09-02T09:51:57.110Z,101900.31
2022-09-02T09:55:19.215Z,101896.97
2022-09-02T09:58:35.514Z,101891.09
2022-09-02T10:01:39.568Z,101892.53
2022-09-02T10:04:43.993Z,101896.53
2022-09-02T10:07:57.823Z,101885.88
2022-09-02T10:11:08.487Z,101878.91
2022-09-02T10:14:13.107Z,101886.06
2022-09-02T10:17:33.582Z,101876.53
2022-09-02T10:21:15.552Z,101866.06
2022-09-02T10:24:45.854Z,101869.69
2022-09-02T10:28:04.891Z,101867.31
2022-09-02T10:31:18.631Z,101856.63
2022-09-02T10:34:36.599Z,101844.34
2022-09-02T10:38:01.921Z,101841.25
2022-09-02T10:41:23.492Z,101838.81
2022-09-02T10:44:36.820Z,101834.84
2022-09-02T10:47:41.718Z,101829.03
2022-09-02T10:50:53.492Z,101834.22
2022-09-02T10:54:18.850Z,101828.03
2022-09-02T10:57:32.987Z,101820.63
2022-09-02T11:00:42.768Z,101819.66
2022-09-02T11:04:04.198Z,101818.09
2022-09-02T11:07:14.206Z,101824.91
2022-09-02T11:10:26.906Z,101822.69
2022-09-02T11:13:40.279Z,101804.94
2022-09-02T11:16:53.710Z,101813.38
2022-09-02T11:20:09.446Z,101803.66
2022-09-02T11:23:25.651Z,101809.75
2022-09-02T11:26:38.449Z,101804.34
2022-09-02T11:29:58.548Z,101805.09
2022-09-02T11:33:17.269Z,101794.22
2022-09-02T11:36:21.722Z,101793.03
2022-09-02T11:39:52.553Z,101788.13
2022-09-02T11:43:22.059Z,101780.84
2022-09-02T11:47:02.537Z,101778.81
2022-09-02T11:50:41.076Z,101771.44
2022-09-02T11:53:47.607Z,101770.81
2022-09-02T11:57:00.324Z,101781.63
2022-09-02T12:00:30.516Z,101780.75
2022-09-02T12:03:52.197Z,101770.50
2022-09-02T12:07:32.721Z,101771.66
2022-09-02T12:11:06.162Z,101759.69
2022-09-02T12:14:13.709Z,101758.66
2022-09-02T12:17:47.164Z,101761.53
2022-09-02T12:21:16.659Z,101758.75
2022-09-02T12:24:26.497Z,101756.69
2022-09-02T12:27:36.775Z,101745.06
2022-09-02T12:31:16.695Z,101740.84
2022-09-02T12:35:10.170Z,101738.78
2022-09-02T12:38:36.797Z,101738.63
2022-09-02T12:41:46.235Z,101731.44
2022-09-02T12:45:04.618Z,101731.16
2022-09-02T12:48:18.179Z,101730.03
2022-09-02T12:51:57.278Z,101719.19
2022-09-02T12:55:09.355Z,101702.69
2022-09-02T12:58:22.100Z,101703.16
2022-09-02T13:01:41.106Z,101708.13
2022-09-02T13:05:00.323Z,101707.31
2022-09-02T13:08:54.650Z,101694.75
2022-09-02T13:12:51.917Z,101697.66
2022-09-02T13:16:18.962Z,101699.34
2022-09-02T13:20:00.148Z,101705.94
2022-09-02T13:23:43.219Z,101693.47
2022-09-02T13:27:53.340Z,101691.78
2022-09-02T13:31:14.872Z,101682.75
2022-09-02T13:34:18.764Z,101685.56
2022-09-02T13:37:36.259Z,101682.34
2022-09-02T13:40:43.796Z,101683.84
2022-09-02T13:43:47.751Z,101675.97
2022-09-02T13:46:58.506Z,101666.22
2022-09-02T13:50:02.195Z,101671.44
2022-09-02T13:53:53.694Z,101660.72
2022-09-02T13:56:33.067Z,101661.47
2022-09-02T13:59:40.022Z,101655.88
2022-09-02T14:03:02.104Z,101666.84
2022-09-02T14:06:08.195Z,101662.19
2022-09-02T14:09:23.384Z,101652.09
2022-09-02T14:12:33.915Z,101647.00
2022-09-02T14:15:38.456Z,101649.69
2022-09-02T14:19:14.718Z,101652.47
2022-09-02T14:22:28.032Z,101646.88
2022-09-02T14:25:38.585Z,101631.75
2022-09-02T14:28:42.215Z,101635.41
2022-09-02T14:31:47.154Z,101640.53
2022-09-02T14:35:13.686Z,101634.06
2022-09-02T14:38:25.611Z,101629.56
2022-09-02T14:41:36.125Z,101629.81
2022-09-02T14:44:40.776Z,101633.47
2022-09-02T14:47:44.424Z,101631.28
2022-09-02T14:50:50.702Z,101622.00
2022-09-02T14:53:54.298Z,101631.63
2022-09-02T14:56:57.909Z,101622.25
2022-09-02T15:00:06.807Z,101632.84
2022-09-02T15:03:16.014Z,101626.41
2022-09-02T15:06:20.987Z,101630.66
2022-09-02T15:09:24.710Z,101621.16
2022-09-02T15:12:31.702Z,101623.44
2022-09-02T15:15:40.501Z,101623.22
2022-09-02T15:18:44.174Z,101623.47
2022-09-02T15:21:49.219Z,101618.97
2022-09-02T15:24:53.436Z,101617.38
2022-09-02T15:27:57.497Z,101614.84
2022-09-02T15:31:02.557Z,101618.00
2022-09-02T15:34:06.447Z,101611.81
2022-09-02T15:37:13.200Z,101609.66
2022-09-02T15:40:17.162Z,101598.72
2022-09-02T15:43:21.428Z,101606.69
2022-09-02T15:46:28.730Z,101599.84
2022-09-02T15:49:32.427Z,101599.66
2022-09-02T15:52:38.616Z,101593.56
2022-09-02T15:55:42.262Z,101598.56
2022-09-02T15:58:46.090Z,101586.91
2022-09-02T16:01:55.390Z,101589.44
2022-09-02T16:04:59.118Z,101579.28
2022-09-02T16:08:04.526Z,101577.81
2022-09-02T16:11:10.356Z,101584.84
2022-09-02T16:14:15.097Z,101577.94
2022-09-02T16:17:24.746Z,101579.13
2022-09-02T16:20:28.348Z,101571.69
2022-09-02T16:23:33.979Z,101567.72
2022-09-02T16:26:39.646Z,101570.94
2022-09-02T16:29:43.447Z,101566.97
2022-09-02T16:32:47.762Z,101563.53
2022-09-02T16:35:51.494Z,101561.28
2022-09-02T16:38:56.543Z,101559.88
2022-09-02T16:42:04.277Z,101548.34
2022-09-02T16:45:09.617Z,101561.59
2022-09-02T16:48:13.358Z,101552.94
2022-09-02T16:51:20.211Z,101546.34
2022-09-02T16:54:30.844Z,101552.63
2022-09-02T16:57:36.159Z,101547.31
2022-09-02T17:00:40.631Z,101555.00
2022-09-02T17:03:46.606Z,101553.81
2022-09-02T17:06:50.436Z,101545.38
2022-09-02T17:09:55.497Z,101554.03
2022-09-02T17:13:00.639Z,101551.28
2022-09-02T17:16:04.683Z,101544.44
2022-09-02T17:19:10.500Z,101555.53
2022-09-02T17:22:14.160Z,101556.22
2022-09-02T17:25:19.550Z,101549.59
2022-09-02T17:28:27.173Z,101545.81
2022-09-02T17:31:34.428Z,101553.59
2022-09-02T17:34:38.796Z,101554.44
2022-09-02T17:37:42.401Z,101548.97
2022-09-02T17:41:05.117Z,101554.97
2022-09-02T17:44:08.697Z,101551.50
2022-09-02T17:47:16.404Z,101561.00
2022-09-02T17:50:19.979Z,101565.78
2022-09-02T17:53:26.514Z,101561.31
2022-09-02T17:57:03.964Z,101567.88
2022-09-02T18:00:11.997Z,101570.00
2022-09-02T18:03:44.649Z,101566.19
2022-09-02T18:06:53.995Z,101572.94
2022-09-02T18:09:58.287Z,101571.41
2022-09-02T18:13:08.123Z,101571.41
2022-09-02T18:16:37.487Z,101573.59
2022-09-02T18:20:09.412Z,101566.00
2022-09-02T18:23:36.496Z,101569.09
2022-09-02T18:26:57.369Z,101572.84
2022-09-02T18:30:09.017Z,101585.78
2022-09-02T18:33:34.306Z,101588.97
2022-09-02T18:36:48.687Z,101582.41
2022-09-02T18:40:13.178Z,101582.41
2022-09-02T18:43:33.986Z,101589.03
2022-09-02T18:46:50.219Z,101589.13
2022-09-02T18:49:58.696Z,101595.28
2022-09-02T18:53:02.731Z,101591.09
2022-09-02T18:56:10.791Z,101595.81
2022-09-02T18:59:20.852Z,101598.06
2022-09-02T19:02:44.685Z,101594.81
2022-09-02T19:05:48.342Z,101603.13
2022-09-02T19:08:59.809Z,101598.25
2022-09-02T19:12:04.520Z,101609.06
2022-09-02T19:15:28.919Z,101604.16
2022-09-02T19:18:34.167Z,101607.38
2022-09-02T19:21:42.033Z,101614.53
2022-09-02T19:24:57.147Z,101619.84
2022-09-02T19:28:06.060Z,101611.09
2022-09-02T19:31:18.251Z,101620.00
2022-09-02T19:34:31.983Z,101616.59
2022-09-02T19:37:44.237Z,101625.50
2022-09-02T19:40:49.703Z,101625.56
2022-09-02T19:43:54.253Z,101622.03
2022-09-02T19:50:24.040Z,101629.94
2022-09-02T19:53:30.381Z,101637.66
2022-09-02T19:56:34.212Z,101639.16
2022-09-02T19:59:37.855Z,101639.84
2022-09-02T20:02:41.961Z,101638.19
2022-09-02T20:05:48.334Z,101641.81
2022-09-02T20:08:52.942Z,101639.44
2022-09-02T20:11:57.222Z,101645.81
2022-09-02T20:15:01.246Z,101642.28
2022-09-02T20:18:12.422Z,101641.59
2022-09-02T20:21:23.985Z,101646.38
2022-09-02T20:24:31.566Z,101645.00
2022-09-02T20:28:02.211Z,101646.78
2022-09-02T20:31:25.967Z,101645.56
2022-09-02T20:34:50.839Z,101643.75
2022-09-02T20:38:11.744Z,101648.22
2022-09-02T20:41:33.973Z,101652.91
2022-09-02T20:44:57.919Z,101666.53
2022-09-02T20:48:17.362Z,101659.66
2022-09-02T20:51:30.775Z,101661.53
2022-09-02T20:54:46.007Z,101659.13
2022-09-02T20:58:26.777Z,101652.97
2022-09-02T21:01:34.582Z,101656.00
2022-09-02T21:04:45.120Z,101648.28
2022-09-02T21:07:55.949Z,101646.72
2022-09-02T21:11:06.455Z,101655.78
2022-09-02T21:14:17.503Z,101650.78
2022-09-02T21:17:32.402Z,101653.75
2022-09-02T21:20:47.680Z,101654.31
2022-09-02T21:23:57.819Z,101649.41
2022-09-02T21:27:12.531Z,101656.81
2022-09-02T21:30:22.594Z,101655.19
2022-09-02T21:33:30.922Z,101646.69
2022-09-02T21:36:39.637Z,101648.78
2022-09-02T21:39:52.347Z,101655.53
2022-09-02T21:43:24.939Z,101647.78
2022-09-02T21:46:41.659Z,101647.38
2022-09-02T21:50:06.717Z,101643.22
2022-09-02T21:53:23.434Z,101647.84
2022-09-02T21:56:49.670Z,101650.13
2022-09-02T22:00:05.403Z,101657.44
2022-09-02T22:03:18.137Z,101639.19
2022-09-02T22:06:32.573Z,101647.41
2022-09-02T22:09:36.616Z,101643.16
2022-09-02T22:12:48.836Z,101637.94
2022-09-02T22:16:13.012Z,101647.09
2022-09-02T22:19:31.074Z,101635.66
2022-09-02T22:22:44.850Z,101637.50
2022-09-02T22:25:50.004Z,101642.22
2022-09-02T22:29:03.672Z,101644.22
2022-09-02T22:32:13.588Z,101634.47
2022-09-02T22:35:27.889Z,101641.81
2022-09-02T22:38:42.079Z,101647.41
2022-09-02T22:42:01.027Z,101645.59
2022-09-02T22:45:29.396Z,101650.03
2022-09-02T22:48:57.783Z,101644.03
2022-09-02T22:52:29.519Z,101647.94
2022-09-02T22:55:50.515Z,101646.41
2022-09-02T22:59:38.783Z,101641.34
2022-09-02T23:02:51.002Z,101644.19
2022-09-02T23:06:08.089Z,101641.56
2022-09-02T23:09:14.104Z,101639.22
2022-09-02T23:12:28.851Z,101641.34
2022-09-02T23:15:48.006Z,101634.59
2022-09-02T23:19:12.001Z,101640.09
2022-09-02T23:22:34.261Z,101643.00
2022-09-02T23:26:03.937Z,101634.31
2022-09-02T23:29:18.757Z,101632.94
2022-09-02T23:33:07.185Z,101633.31
2022-09-02T23:36:21.990Z,101632.59
2022-09-02T23:39:49.210Z,101630.22
2022-09-02T23:42:52.960Z,101621.38
2022-09-02T23:46:02.458Z,101626.09
2022-09-02T23:49:21.271Z,101623.75
2022-09-02T23:52:34.344Z,101613.44
2022-09-02T23:55:52.245Z,101611.91
2022-09-02T23:59:20.887Z,101608.59
